Swift Current Airport, Saskatchewan

Past 24 Hour Conditions

This table is a summary of hourly weather conditions for the past 24 hours. This summary includes the following parameters: temperature, humidity, dew point, wind speed and direction, air pressure, visibility and/or wind chill and humidex.
Date / Time
(CST)
Conditions Temp (°F) Humidity (%) Dew Point (°F) Wind (mph) Pressure (inches) Vis (mi) Humidex
19 September 2014
9:00 Cloudy 56 86 52 W 10 29.7 10 *
8:00 Mostly Cloudy 54   92 52 WNW 9 29.7 10 *
7:00 Cloudy 54   91 51 WNW 11 29.6 10 *
6:00 Mostly Cloudy 54   90 51 W 7 29.6 10 *
5:00 Cloudy 54   87 50 W 13 29.6 10 *
4:00 Mainly Clear 55 74 47 W 14 29.5 10 *
3:00 Cloudy 59 63 46 W 11 gust 17 29.5 10 *
2:00 Cloudy 62 55 45 SW 13 gust 18 29.5 10 *
1:00 Cloudy 64 51 46 WSW 15 29.5 10 *
00:00 Cloudy 60 70 50 SW 14 29.5 8 *
18 September 2014
23:00 Cloudy 61 67 50 SW 11 29.5 8 *
22:00 Partly Cloudy 59 71 50 SW 10 29.6 7 *
21:00 Haze 59 68 48 SSW 11 29.5 5 *
20:00 Haze 65 55 49 SW 13 29.5 5 *
19:00 Mainly Sunny 69 49 50 WSW 10 29.5 10 *
18:00 Haze 71 47 50 SW 6 29.5 1 *
17:00 Haze 72 45 50 WSW 8 29.5 3 *
16:00 Haze 76 33 45 WSW 10 29.5 3 76
15:00 Mainly Sunny 79 26 42 W 17 gust 24 29.5 7 *
14:00 Partly Cloudy 83   24 43 W 17 gust 23 29.5 10 *
13:00 Partly Cloudy 80 28 44 W 10 gust 18 29.5 10 *
12:00 Sunny 79 34 49 SW 13 29.5 10 81
11:00 Sunny 74 42 50 SW 11 29.6 10 *
10:00 Sunny 68 51 49 SW 14 29.6 10 *
9:00 Mainly Sunny 62 63 50 SW 16 29.6 10 *
N/A
Not available
 ↑ 
Highest temperature
 ↓ 
Lowest temperature
*
Value not significant.

If you require additional historical weather information, please visit Climate Data Online.